Dronten, Netherlands
Current Conditions -  °F | °C
As of 5:55 PM on Saturday 22 Nov 2014 (Local Time) from EHDL Reporting Station
Overcast Overcast  
Wind Chill: 46°   Ceiling: 16000
Heat Index: 48°   Visibility: 6mi
Dew Point: 45°   Wind: 6mph
Humidity: 87%   Direction: 130°SE
Pressure: 30.03"   Gusts: NA
Location:  52.53°N, 5.72°E
Report Text: EHDL 221655Z AUTO 13005KT 9999 OVC160 09/07 Q1017 BLU
Loading
Personal Weather Stations






























Interactive Weather Map New forecast layout! Learn more

10-Day Weather Forecast

Advertisements
Track Severe Weather on mobile